sensor_id;sensor_type;location;lat;lon;timestamp;temperature;humidity
66726;HTU21D;53638;51.062;5.804;2022-09-09T00:00:54;14.74;118.99
66726;HTU21D;53638;51.062;5.804;2022-09-09T00:03:26;14.73;118.99
66726;HTU21D;53638;51.062;5.804;2022-09-09T00:06:08;14.74;118.99
66726;HTU21D;53638;51.062;5.804;2022-09-09T00:11:27;14.72;118.99
66726;HTU21D;53638;51.062;5.804;2022-09-09T00:13:58;14.72;118.99
66726;HTU21D;53638;51.062;5.804;2022-09-09T00:16:28;14.70;118.99
66726;HTU21D;53638;51.062;5.804;2022-09-09T00:19:19;14.69;118.99
66726;HTU21D;53638;51.062;5.804;2022-09-09T00:24:39;14.71;118.99
66726;HTU21D;53638;51.062;5.804;2022-09-09T00:27:19;14.68;118.99
66726;HTU21D;53638;51.062;5.804;2022-09-09T00:29:53;14.66;118.99
66726;HTU21D;53638;51.062;5.804;2022-09-09T00:32:21;14.63;118.99
66726;HTU21D;53638;51.062;5.804;2022-09-09T00:34:54;14.59;118.99
66726;HTU21D;53638;51.062;5.804;2022-09-09T00:37:23;14.57;118.99
66726;HTU21D;53638;51.062;5.804;2022-09-09T00:39:54;14.54;118.99
66726;HTU21D;53638;51.062;5.804;2022-09-09T00:42:26;14.53;118.99
66726;HTU21D;53638;51.062;5.804;2022-09-09T00:45:37;14.53;118.99
66726;HTU21D;53638;51.062;5.804;2022-09-09T00:48:11;14.51;118.99
66726;HTU21D;53638;51.062;5.804;2022-09-09T00:50:56;14.49;118.99
66726;HTU21D;53638;51.062;5.804;2022-09-09T00:53:51;14.49;118.99
66726;HTU21D;53638;51.062;5.804;2022-09-09T00:56:33;14.48;118.99
66726;HTU21D;53638;51.062;5.804;2022-09-09T00:59:28;14.45;118.99
66726;HTU21D;53638;51.062;5.804;2022-09-09T01:01:57;14.44;118.99
66726;HTU21D;53638;51.062;5.804;2022-09-09T01:04:32;14.43;118.99
66726;HTU21D;53638;51.062;5.804;2022-09-09T01:07:14;14.43;118.99
66726;HTU21D;53638;51.062;5.804;2022-09-09T01:10:00;14.45;118.99
66726;HTU21D;53638;51.062;5.804;2022-09-09T01:12:41;14.45;118.99
66726;HTU21D;53638;51.062;5.804;2022-09-09T01:15:21;14.44;118.99
66726;HTU21D;53638;51.062;5.804;2022-09-09T01:20:30;14.44;118.99
66726;HTU21D;53638;51.062;5.804;2022-09-09T01:23:16;14.43;118.99
66726;HTU21D;53638;51.062;5.804;2022-09-09T01:26:15;14.47;118.99
66726;HTU21D;53638;51.062;5.804;2022-09-09T01:28:47;14.48;118.99
66726;HTU21D;53638;51.062;5.804;2022-09-09T01:31:20;14.50;118.99
66726;HTU21D;53638;51.062;5.804;2022-09-09T01:33:48;14.52;118.99
66726;HTU21D;53638;51.062;5.804;2022-09-09T01:36:24;14.52;118.99
66726;HTU21D;53638;51.062;5.804;2022-09-09T01:38:52;14.51;118.99
66726;HTU21D;53638;51.062;5.804;2022-09-09T01:41:19;14.50;118.99
66726;HTU21D;53638;51.062;5.804;2022-09-09T01:43:50;14.51;118.99
66726;HTU21D;53638;51.062;5.804;2022-09-09T01:46:21;14.50;118.99
66726;HTU21D;53638;51.062;5.804;2022-09-09T01:48:49;14.51;118.99
66726;HTU21D;53638;51.062;5.804;2022-09-09T01:51:15;14.51;118.99
66726;HTU21D;53638;51.062;5.804;2022-09-09T01:53:43;14.52;118.99
66726;HTU21D;53638;51.062;5.804;2022-09-09T01:56:45;14.52;118.99
66726;HTU21D;53638;51.062;5.804;2022-09-09T01:59:35;14.51;118.99
66726;HTU21D;53638;51.062;5.804;2022-09-09T02:04:43;14.55;118.99
66726;HTU21D;53638;51.062;5.804;2022-09-09T02:07:39;14.59;118.99
66726;HTU21D;53638;51.062;5.804;2022-09-09T02:12:55;14.54;118.99
66726;HTU21D;53638;51.062;5.804;2022-09-09T02:18:10;14.48;118.99
66726;HTU21D;53638;51.062;5.804;2022-09-09T02:20:38;14.48;118.99
66726;HTU21D;53638;51.062;5.804;2022-09-09T02:23:07;14.48;118.99
66726;HTU21D;53638;51.062;5.804;2022-09-09T02:25:36;14.45;118.99
66726;HTU21D;53638;51.062;5.804;2022-09-09T02:28:16;14.43;118.99
66726;HTU21D;53638;51.062;5.804;2022-09-09T02:30:46;14.45;118.99
66726;HTU21D;53638;51.062;5.804;2022-09-09T02:33:18;14.44;118.99
66726;HTU21D;53638;51.062;5.804;2022-09-09T02:35:53;14.41;118.99
66726;HTU21D;53638;51.062;5.804;2022-09-09T02:38:28;14.44;118.99
66726;HTU21D;53638;51.062;5.804;2022-09-09T02:41:02;14.48;118.99
66726;HTU21D;53638;51.062;5.804;2022-09-09T02:43:34;14.52;118.99
66726;HTU21D;53638;51.062;5.804;2022-09-09T02:46:27;14.53;118.99
66726;HTU21D;53638;51.062;5.804;2022-09-09T02:49:02;14.60;118.99
66726;HTU21D;53638;51.062;5.804;2022-09-09T02:51:51;14.65;118.99
66726;HTU21D;53638;51.062;5.804;2022-09-09T02:54:29;14.69;118.99
66726;HTU21D;53638;51.062;5.804;2022-09-09T02:57:05;14.75;118.99
66726;HTU21D;53638;51.062;5.804;2022-09-09T02:59:37;14.79;118.99
66726;HTU21D;53638;51.062;5.804;2022-09-09T03:02:03;14.83;118.99
66726;HTU21D;53638;51.062;5.804;2022-09-09T03:04:30;14.84;118.99
66726;HTU21D;53638;51.062;5.804;2022-09-09T03:06:58;14.85;118.99
66726;HTU21D;53638;51.062;5.804;2022-09-09T03:09:24;14.86;118.99
66726;HTU21D;53638;51.062;5.804;2022-09-09T03:11:50;14.86;118.99
66726;HTU21D;53638;51.062;5.804;2022-09-09T03:14:16;14.86;118.99
66726;HTU21D;53638;51.062;5.804;2022-09-09T03:16:42;14.85;118.99
66726;HTU21D;53638;51.062;5.804;2022-09-09T03:19:09;14.87;118.99
66726;HTU21D;53638;51.062;5.804;2022-09-09T03:21:35;14.87;118.99
66726;HTU21D;53638;51.062;5.804;2022-09-09T03:24:01;14.89;118.99
66726;HTU21D;53638;51.062;5.804;2022-09-09T03:26:29;14.91;118.99
66726;HTU21D;53638;51.062;5.804;2022-09-09T03:28:56;14.94;118.99
66726;HTU21D;53638;51.062;5.804;2022-09-09T03:31:23;14.97;118.99
66726;HTU21D;53638;51.062;5.804;2022-09-09T03:33:50;14.95;118.99
66726;HTU21D;53638;51.062;5.804;2022-09-09T03:36:18;14.93;118.99
66726;HTU21D;53638;51.062;5.804;2022-09-09T03:38:44;14.93;118.99
66726;HTU21D;53638;51.062;5.804;2022-09-09T03:41:11;14.94;118.99
66726;HTU21D;53638;51.062;5.804;2022-09-09T03:43:38;14.91;118.99
66726;HTU21D;53638;51.062;5.804;2022-09-09T03:46:05;14.92;118.99
66726;HTU21D;53638;51.062;5.804;2022-09-09T03:48:30;14.91;118.99
66726;HTU21D;53638;51.062;5.804;2022-09-09T03:50:58;14.89;118.99
66726;HTU21D;53638;51.062;5.804;2022-09-09T03:53:27;14.87;118.99
66726;HTU21D;53638;51.062;5.804;2022-09-09T03:55:55;14.88;118.99
66726;HTU21D;53638;51.062;5.804;2022-09-09T03:58:23;14.88;118.99
66726;HTU21D;53638;51.062;5.804;2022-09-09T04:00:57;14.88;118.99
66726;HTU21D;53638;51.062;5.804;2022-09-09T04:03:26;14.92;118.99
66726;HTU21D;53638;51.062;5.804;2022-09-09T04:05:52;14.94;118.99
66726;HTU21D;53638;51.062;5.804;2022-09-09T04:08:20;14.97;118.99
66726;HTU21D;53638;51.062;5.804;2022-09-09T04:10:48;14.98;118.99
66726;HTU21D;53638;51.062;5.804;2022-09-09T04:13:16;15.01;118.99
66726;HTU21D;53638;51.062;5.804;2022-09-09T04:15:44;15.03;118.99
66726;HTU21D;53638;51.062;5.804;2022-09-09T04:18:12;15.04;118.99
66726;HTU21D;53638;51.062;5.804;2022-09-09T04:20:38;15.08;118.99
66726;HTU21D;53638;51.062;5.804;2022-09-09T04:23:04;15.10;118.99
66726;HTU21D;53638;51.062;5.804;2022-09-09T04:25:31;15.11;118.99
66726;HTU21D;53638;51.062;5.804;2022-09-09T04:27:57;15.12;118.99
66726;HTU21D;53638;51.062;5.804;2022-09-09T04:30:24;15.11;118.99
66726;HTU21D;53638;51.062;5.804;2022-09-09T04:32:50;15.12;118.99
66726;HTU21D;53638;51.062;5.804;2022-09-09T04:35:16;15.12;118.99
66726;HTU21D;53638;51.062;5.804;2022-09-09T04:37:42;15.11;118.99
66726;HTU21D;53638;51.062;5.804;2022-09-09T04:40:08;15.09;118.99
66726;HTU21D;53638;51.062;5.804;2022-09-09T04:42:36;15.07;118.99
66726;HTU21D;53638;51.062;5.804;2022-09-09T04:45:03;15.07;118.99
66726;HTU21D;53638;51.062;5.804;2022-09-09T04:47:30;15.03;118.99
66726;HTU21D;53638;51.062;5.804;2022-09-09T04:49:56;15.00;118.99
66726;HTU21D;53638;51.062;5.804;2022-09-09T04:52:22;14.97;118.99
66726;HTU21D;53638;51.062;5.804;2022-09-09T04:54:48;14.95;118.99
66726;HTU21D;53638;51.062;5.804;2022-09-09T04:57:14;14.92;118.99
66726;HTU21D;53638;51.062;5.804;2022-09-09T04:59:40;14.92;118.99
66726;HTU21D;53638;51.062;5.804;2022-09-09T05:02:06;14.89;118.99
66726;HTU21D;53638;51.062;5.804;2022-09-09T05:04:32;14.89;118.99
66726;HTU21D;53638;51.062;5.804;2022-09-09T05:06:59;14.88;118.99
66726;HTU21D;53638;51.062;5.804;2022-09-09T05:09:25;14.87;118.99
66726;HTU21D;53638;51.062;5.804;2022-09-09T05:11:51;14.87;118.99
66726;HTU21D;53638;51.062;5.804;2022-09-09T05:14:24;14.86;118.99
66726;HTU21D;53638;51.062;5.804;2022-09-09T05:16:50;14.84;118.99
66726;HTU21D;53638;51.062;5.804;2022-09-09T05:19:17;14.83;118.99
66726;HTU21D;53638;51.062;5.804;2022-09-09T05:21:47;14.86;118.99
66726;HTU21D;53638;51.062;5.804;2022-09-09T05:24:16;14.87;118.99
66726;HTU21D;53638;51.062;5.804;2022-09-09T05:26:43;14.88;118.99
66726;HTU21D;53638;51.062;5.804;2022-09-09T05:29:10;14.89;118.99
66726;HTU21D;53638;51.062;5.804;2022-09-09T05:31:36;14.89;118.99
66726;HTU21D;53638;51.062;5.804;2022-09-09T05:34:07;14.89;118.99
66726;HTU21D;53638;51.062;5.804;2022-09-09T05:36:33;14.89;118.99
66726;HTU21D;53638;51.062;5.804;2022-09-09T05:38:59;14.91;118.99
66726;HTU21D;53638;51.062;5.804;2022-09-09T05:41:28;14.89;118.99
66726;HTU21D;53638;51.062;5.804;2022-09-09T05:43:57;14.91;118.99
66726;HTU21D;53638;51.062;5.804;2022-09-09T05:46:25;14.92;118.99
66726;HTU21D;53638;51.062;5.804;2022-09-09T05:48:53;14.95;118.99
66726;HTU21D;53638;51.062;5.804;2022-09-09T05:51:27;14.99;118.99
66726;HTU21D;53638;51.062;5.804;2022-09-09T05:53:56;15.01;118.99
66726;HTU21D;53638;51.062;5.804;2022-09-09T05:56:29;15.04;118.99
66726;HTU21D;53638;51.062;5.804;2022-09-09T05:58:57;15.08;118.99
66726;HTU21D;53638;51.062;5.804;2022-09-09T06:01:29;15.08;118.99
66726;HTU21D;53638;51.062;5.804;2022-09-09T06:03:57;15.09;118.99
66726;HTU21D;53638;51.062;5.804;2022-09-09T06:06:27;15.11;118.99
66726;HTU21D;53638;51.062;5.804;2022-09-09T06:08:58;15.16;118.99
66726;HTU21D;53638;51.062;5.804;2022-09-09T06:11:28;15.24;118.99
66726;HTU21D;53638;51.062;5.804;2022-09-09T06:13:58;15.26;118.99
66726;HTU21D;53638;51.062;5.804;2022-09-09T06:16:27;15.29;118.99
66726;HTU21D;53638;51.062;5.804;2022-09-09T06:18:54;15.37;118.99
66726;HTU21D;53638;51.062;5.804;2022-09-09T06:21:27;15.46;118.99
66726;HTU21D;53638;51.062;5.804;2022-09-09T06:23:54;15.55;118.99
66726;HTU21D;53638;51.062;5.804;2022-09-09T06:26:23;15.63;118.99
66726;HTU21D;53638;51.062;5.804;2022-09-09T06:28:53;15.73;118.99
66726;HTU21D;53638;51.062;5.804;2022-09-09T06:31:24;15.77;118.99
66726;HTU21D;53638;51.062;5.804;2022-09-09T06:33:52;15.82;118.99
66726;HTU21D;53638;51.062;5.804;2022-09-09T06:36:21;15.87;118.99
66726;HTU21D;53638;51.062;5.804;2022-09-09T06:38:47;15.92;118.99
66726;HTU21D;53638;51.062;5.804;2022-09-09T06:41:16;15.96;118.99
66726;HTU21D;53638;51.062;5.804;2022-09-09T06:43:45;15.96;118.99
66726;HTU21D;53638;51.062;5.804;2022-09-09T06:46:20;15.97;118.99
66726;HTU21D;53638;51.062;5.804;2022-09-09T06:48:48;16.00;118.99
66726;HTU21D;53638;51.062;5.804;2022-09-09T06:51:18;16.04;118.99
66726;HTU21D;53638;51.062;5.804;2022-09-09T06:53:46;16.12;118.99
66726;HTU21D;53638;51.062;5.804;2022-09-09T06:56:20;16.17;118.99
66726;HTU21D;53638;51.062;5.804;2022-09-09T06:58:47;16.19;118.99
66726;HTU21D;53638;51.062;5.804;2022-09-09T07:01:24;16.25;118.99
66726;HTU21D;53638;51.062;5.804;2022-09-09T07:03:52;16.24;118.99
66726;HTU21D;53638;51.062;5.804;2022-09-09T07:06:22;16.14;118.99
66726;HTU21D;53638;51.062;5.804;2022-09-09T07:08:54;16.07;118.99
66726;HTU21D;53638;51.062;5.804;2022-09-09T07:11:24;16.07;118.99
66726;HTU21D;53638;51.062;5.804;2022-09-09T07:13:51;16.11;118.99
66726;HTU21D;53638;51.062;5.804;2022-09-09T07:16:19;16.15;118.99
66726;HTU21D;53638;51.062;5.804;2022-09-09T07:18:46;16.17;118.99
66726;HTU21D;53638;51.062;5.804;2022-09-09T07:21:14;16.19;118.99
66726;HTU21D;53638;51.062;5.804;2022-09-09T07:23:41;16.22;118.99
66726;HTU21D;53638;51.062;5.804;2022-09-09T07:26:14;16.26;118.99
66726;HTU21D;53638;51.062;5.804;2022-09-09T07:28:41;16.28;118.99
66726;HTU21D;53638;51.062;5.804;2022-09-09T07:31:15;16.22;118.99
66726;HTU21D;53638;51.062;5.804;2022-09-09T07:33:44;16.36;118.99
66726;HTU21D;53638;51.062;5.804;2022-09-09T07:36:14;16.47;118.99
66726;HTU21D;53638;51.062;5.804;2022-09-09T07:38:43;16.66;118.99
66726;HTU21D;53638;51.062;5.804;2022-09-09T07:41:15;16.88;118.99
66726;HTU21D;53638;51.062;5.804;2022-09-09T07:43:43;17.04;118.99
66726;HTU21D;53638;51.062;5.804;2022-09-09T07:46:12;17.09;118.99
66726;HTU21D;53638;51.062;5.804;2022-09-09T07:48:44;17.13;118.99
66726;HTU21D;53638;51.062;5.804;2022-09-09T07:51:15;17.11;118.99
66726;HTU21D;53638;51.062;5.804;2022-09-09T07:53:44;17.07;118.99
66726;HTU21D;53638;51.062;5.804;2022-09-09T07:56:14;17.07;118.99
66726;HTU21D;53638;51.062;5.804;2022-09-09T07:58:44;17.10;118.99
66726;HTU21D;53638;51.062;5.804;2022-09-09T08:01:14;17.11;118.99
66726;HTU21D;53638;51.062;5.804;2022-09-09T08:03:40;17.13;118.99
66726;HTU21D;53638;51.062;5.804;2022-09-09T08:06:08;17.16;118.99
66726;HTU21D;53638;51.062;5.804;2022-09-09T08:08:35;17.21;118.99
66726;HTU21D;53638;51.062;5.804;2022-09-09T08:11:06;17.29;118.99
66726;HTU21D;53638;51.062;5.804;2022-09-09T08:13:36;17.36;118.99
66726;HTU21D;53638;51.062;5.804;2022-09-09T08:16:05;17.33;118.99
66726;HTU21D;53638;51.062;5.804;2022-09-09T08:18:31;17.39;118.99
66726;HTU21D;53638;51.062;5.804;2022-09-09T08:20:57;17.50;118.99
66726;HTU21D;53638;51.062;5.804;2022-09-09T08:23:23;17.58;118.99
66726;HTU21D;53638;51.062;5.804;2022-09-09T08:25:49;17.63;118.99
66726;HTU21D;53638;51.062;5.804;2022-09-09T08:28:15;17.70;118.99
66726;HTU21D;53638;51.062;5.804;2022-09-09T08:30:41;17.78;118.99
66726;HTU21D;53638;51.062;5.804;2022-09-09T08:33:09;17.87;118.99
66726;HTU21D;53638;51.062;5.804;2022-09-09T08:35:34;17.97;118.99
66726;HTU21D;53638;51.062;5.804;2022-09-09T08:38:01;18.09;118.99
66726;HTU21D;53638;51.062;5.804;2022-09-09T08:40:35;18.27;118.99
66726;HTU21D;53638;51.062;5.804;2022-09-09T08:43:04;18.36;118.99
66726;HTU21D;53638;51.062;5.804;2022-09-09T08:45:42;18.23;118.99
66726;HTU21D;53638;51.062;5.804;2022-09-09T08:50:59;18.07;118.99
66726;HTU21D;53638;51.062;5.804;2022-09-09T08:53:38;18.08;118.99
66726;HTU21D;53638;51.062;5.804;2022-09-09T08:56:16;18.07;118.99
66726;HTU21D;53638;51.062;5.804;2022-09-09T08:58:52;17.97;118.99
66726;HTU21D;53638;51.062;5.804;2022-09-09T09:04:37;17.95;118.99
66726;HTU21D;53638;51.062;5.804;2022-09-09T09:12:18;17.72;118.99
66726;HTU21D;53638;51.062;5.804;2022-09-09T09:14:47;17.68;118.99
66726;HTU21D;53638;51.062;5.804;2022-09-09T09:17:18;17.70;118.99
66726;HTU21D;53638;51.062;5.804;2022-09-09T09:19:46;17.77;118.99
66726;HTU21D;53638;51.062;5.804;2022-09-09T09:22:22;17.92;118.99
66726;HTU21D;53638;51.062;5.804;2022-09-09T09:27:34;18.40;118.99
66726;HTU21D;53638;51.062;5.804;2022-09-09T09:32:43;18.44;118.99
66726;HTU21D;53638;51.062;5.804;2022-09-09T09:35:12;18.44;118.99
66726;HTU21D;53638;51.062;5.804;2022-09-09T09:37:41;18.47;118.99
66726;HTU21D;53638;51.062;5.804;2022-09-09T09:40:11;18.40;118.99
66726;HTU21D;53638;51.062;5.804;2022-09-09T09:42:49;18.34;118.99
66726;HTU21D;53638;51.062;5.804;2022-09-09T09:45:27;18.41;118.99
66726;HTU21D;53638;51.062;5.804;2022-09-09T09:48:00;18.56;118.99
66726;HTU21D;53638;51.062;5.804;2022-09-09T09:50:29;18.71;118.99
66726;HTU21D;53638;51.062;5.804;2022-09-09T09:53:03;18.83;118.99
66726;HTU21D;53638;51.062;5.804;2022-09-09T09:55:35;18.85;118.99
66726;HTU21D;53638;51.062;5.804;2022-09-09T09:58:05;18.66;118.99
66726;HTU21D;53638;51.062;5.804;2022-09-09T10:00:33;18.56;118.99
66726;HTU21D;53638;51.062;5.804;2022-09-09T10:03:22;18.43;118.99
66726;HTU21D;53638;51.062;5.804;2022-09-09T10:05:50;18.22;118.99
66726;HTU21D;53638;51.062;5.804;2022-09-09T10:08:17;17.84;118.99
66726;HTU21D;53638;51.062;5.804;2022-09-09T10:11:05;17.70;118.99
66726;HTU21D;53638;51.062;5.804;2022-09-09T10:13:55;17.91;118.99
66726;HTU21D;53638;51.062;5.804;2022-09-09T10:41:53;18.15;118.99
66726;HTU21D;53638;51.062;5.804;2022-09-09T11:02:47;18.15;118.99
66726;HTU21D;53638;51.062;5.804;2022-09-09T11:09:57;17.61;118.99
66726;HTU21D;53638;51.062;5.804;2022-09-09T11:12:39;17.33;118.99
66726;HTU21D;53638;51.062;5.804;2022-09-09T11:15:40;17.06;118.99
66726;HTU21D;53638;51.062;5.804;2022-09-09T11:18:20;16.89;118.99
66726;HTU21D;53638;51.062;5.804;2022-09-09T11:21:16;16.82;118.99
66726;HTU21D;53638;51.062;5.804;2022-09-09T11:24:05;16.77;118.99
66726;HTU21D;53638;51.062;5.804;2022-09-09T11:27:02;16.96;118.99
66726;HTU21D;53638;51.062;5.804;2022-09-09T11:32:21;17.52;118.99
66726;HTU21D;53638;51.062;5.804;2022-09-09T11:37:49;18.50;118.99
66726;HTU21D;53638;51.062;5.804;2022-09-09T11:40:24;18.57;118.99
66726;HTU21D;53638;51.062;5.804;2022-09-09T11:43:12;18.36;118.99
66726;HTU21D;53638;51.062;5.804;2022-09-09T11:45:41;18.71;118.99
66726;HTU21D;53638;51.062;5.804;2022-09-09T11:48:33;19.13;118.99
66726;HTU21D;53638;51.062;5.804;2022-09-09T11:51:04;19.26;118.99
66726;HTU21D;53638;51.062;5.804;2022-09-09T11:53:31;19.27;118.99
66726;HTU21D;53638;51.062;5.804;2022-09-09T11:56:07;19.26;118.99
66726;HTU21D;53638;51.062;5.804;2022-09-09T11:58:41;19.40;118.99
66726;HTU21D;53638;51.062;5.804;2022-09-09T12:01:14;19.71;118.99
66726;HTU21D;53638;51.062;5.804;2022-09-09T12:03:48;19.97;118.99
66726;HTU21D;53638;51.062;5.804;2022-09-09T12:06:25;20.03;118.99
66726;HTU21D;53638;51.062;5.804;2022-09-09T12:08:58;20.10;118.99
66726;HTU21D;53638;51.062;5.804;2022-09-09T12:11:31;20.09;118.99
66726;HTU21D;53638;51.062;5.804;2022-09-09T12:13:59;20.12;118.99
66726;HTU21D;53638;51.062;5.804;2022-09-09T12:16:30;20.47;118.99
66726;HTU21D;53638;51.062;5.804;2022-09-09T12:19:19;20.40;118.99
66726;HTU21D;53638;51.062;5.804;2022-09-09T12:21:54;20.25;118.99
66726;HTU21D;53638;51.062;5.804;2022-09-09T12:24:34;20.28;118.99
66726;HTU21D;53638;51.062;5.804;2022-09-09T12:27:14;20.60;118.99
66726;HTU21D;53638;51.062;5.804;2022-09-09T12:29:54;21.58;118.99
66726;HTU21D;53638;51.062;5.804;2022-09-09T12:32:25;21.80;118.99
66726;HTU21D;53638;51.062;5.804;2022-09-09T12:34:54;21.59;118.99
66726;HTU21D;53638;51.062;5.804;2022-09-09T12:37:31;21.33;118.99
66726;HTU21D;53638;51.062;5.804;2022-09-09T12:40:01;21.00;118.99
66726;HTU21D;53638;51.062;5.804;2022-09-09T12:42:29;20.87;118.99
66726;HTU21D;53638;51.062;5.804;2022-09-09T12:44:56;20.77;118.99
66726;HTU21D;53638;51.062;5.804;2022-09-09T12:47:33;20.62;118.99
66726;HTU21D;53638;51.062;5.804;2022-09-09T12:50:03;20.46;118.99
66726;HTU21D;53638;51.062;5.804;2022-09-09T12:52:34;20.12;118.99
66726;HTU21D;53638;51.062;5.804;2022-09-09T12:55:04;19.27;118.99
66726;HTU21D;53638;51.062;5.804;2022-09-09T12:57:36;17.92;118.99
66726;HTU21D;53638;51.062;5.804;2022-09-09T13:00:07;16.99;118.99
66726;HTU21D;53638;51.062;5.804;2022-09-09T13:02:35;16.56;118.99
66726;HTU21D;53638;51.062;5.804;2022-09-09T13:05:17;16.37;118.99
66726;HTU21D;53638;51.062;5.804;2022-09-09T13:07:43;16.30;118.99
66726;HTU21D;53638;51.062;5.804;2022-09-09T13:10:12;16.22;118.99
66726;HTU21D;53638;51.062;5.804;2022-09-09T13:12:40;16.18;118.99
66726;HTU21D;53638;51.062;5.804;2022-09-09T13:15:29;16.22;118.99
66726;HTU21D;53638;51.062;5.804;2022-09-09T13:17:59;16.27;118.99
66726;HTU21D;53638;51.062;5.804;2022-09-09T13:20:51;16.27;118.99
66726;HTU21D;53638;51.062;5.804;2022-09-09T13:23:35;16.39;118.99
66726;HTU21D;53638;51.062;5.804;2022-09-09T13:29:27;16.32;118.99
66726;HTU21D;53638;51.062;5.804;2022-09-09T13:32:18;16.51;118.99
66726;HTU21D;53638;51.062;5.804;2022-09-09T13:34:56;16.72;118.99
66726;HTU21D;53638;51.062;5.804;2022-09-09T13:37:44;17.09;118.99
66726;HTU21D;53638;51.062;5.804;2022-09-09T13:40:20;17.33;118.99
66726;HTU21D;53638;51.062;5.804;2022-09-09T13:46:26;17.88;118.99
66726;HTU21D;53638;51.062;5.804;2022-09-09T13:55:39;19.68;118.99
66726;HTU21D;53638;51.062;5.804;2022-09-09T13:58:26;20.00;118.99
66726;HTU21D;53638;51.062;5.804;2022-09-09T14:01:18;20.29;118.99
66726;HTU21D;53638;51.062;5.804;2022-09-09T14:03:57;20.56;118.99
66726;HTU21D;53638;51.062;5.804;2022-09-09T14:06:50;20.77;118.99
66726;HTU21D;53638;51.062;5.804;2022-09-09T14:09:25;21.82;118.99
66726;HTU21D;53638;51.062;5.804;2022-09-09T14:12:16;23.99;118.99
66726;HTU21D;53638;51.062;5.804;2022-09-09T14:14:42;25.30;118.99
66726;HTU21D;53638;51.062;5.804;2022-09-09T14:17:35;26.33;118.99
66726;HTU21D;53638;51.062;5.804;2022-09-09T14:20:18;27.47;118.99
66726;HTU21D;53638;51.062;5.804;2022-09-09T14:22:45;27.96;118.99
66726;HTU21D;53638;51.062;5.804;2022-09-09T14:25:11;27.50;118.99
66726;HTU21D;53638;51.062;5.804;2022-09-09T14:28:19;27.39;118.99
66726;HTU21D;53638;51.062;5.804;2022-09-09T14:30:45;27.86;118.99
66726;HTU21D;53638;51.062;5.804;2022-09-09T14:33:32;27.53;118.99
66726;HTU21D;53638;51.062;5.804;2022-09-09T14:36:01;26.07;118.99
66726;HTU21D;53638;51.062;5.804;2022-09-09T14:41:33;24.84;118.99
66726;HTU21D;53638;51.062;5.804;2022-09-09T14:43:59;26.42;118.99
66726;HTU21D;53638;51.062;5.804;2022-09-09T14:46:50;27.37;118.99
66726;HTU21D;53638;51.062;5.804;2022-09-09T14:49:16;26.98;118.99
66726;HTU21D;53638;51.062;5.804;2022-09-09T14:52:07;26.25;118.99
66726;HTU21D;53638;51.062;5.804;2022-09-09T14:54:49;25.90;118.99
66726;HTU21D;53638;51.062;5.804;2022-09-09T14:57:15;26.34;118.99
66726;HTU21D;53638;51.062;5.804;2022-09-09T14:59:41;26.95;118.99
66726;HTU21D;53638;51.062;5.804;2022-09-09T15:02:08;27.14;118.99
66726;HTU21D;53638;51.062;5.804;2022-09-09T15:04:47;26.53;118.99
66726;HTU21D;53638;51.062;5.804;2022-09-09T15:07:16;24.99;118.99
66726;HTU21D;53638;51.062;5.804;2022-09-09T15:10:02;23.81;118.99
66726;HTU21D;53638;51.062;5.804;2022-09-09T15:12:28;23.46;118.99
66726;HTU21D;53638;51.062;5.804;2022-09-09T15:15:04;23.28;118.99
66726;HTU21D;53638;51.062;5.804;2022-09-09T15:17:31;23.13;118.99
66726;HTU21D;53638;51.062;5.804;2022-09-09T15:19:57;23.75;118.99
66726;HTU21D;53638;51.062;5.804;2022-09-09T15:22:49;25.46;118.99
66726;HTU21D;53638;51.062;5.804;2022-09-09T15:25:16;26.54;118.99
66726;HTU21D;53638;51.062;5.804;2022-09-09T15:31:23;25.18;118.99
66726;HTU21D;53638;51.062;5.804;2022-09-09T15:34:15;25.04;118.99
66726;HTU21D;53638;51.062;5.804;2022-09-09T15:37:10;25.63;118.99
66726;HTU21D;53638;51.062;5.804;2022-09-09T15:40:21;25.89;118.99
66726;HTU21D;53638;51.062;5.804;2022-09-09T15:49:27;24.14;118.99
66726;HTU21D;53638;51.062;5.804;2022-09-09T16:19:07;22.33;118.99
66726;HTU21D;53638;51.062;5.804;2022-09-09T16:21:38;22.33;118.99
66726;HTU21D;53638;51.062;5.804;2022-09-09T16:24:06;22.61;118.99
66726;HTU21D;53638;51.062;5.804;2022-09-09T16:26:36;22.79;118.99
66726;HTU21D;53638;51.062;5.804;2022-09-09T16:29:02;22.71;118.99
66726;HTU21D;53638;51.062;5.804;2022-09-09T16:31:29;23.11;118.99
66726;HTU21D;53638;51.062;5.804;2022-09-09T16:33:56;23.88;118.99
66726;HTU21D;53638;51.062;5.804;2022-09-09T16:36:26;24.55;118.99
66726;HTU21D;53638;51.062;5.804;2022-09-09T16:38:55;24.49;118.99
66726;HTU21D;53638;51.062;5.804;2022-09-09T16:41:24;23.90;118.99
66726;HTU21D;53638;51.062;5.804;2022-09-09T16:43:54;23.28;118.99
66726;HTU21D;53638;51.062;5.804;2022-09-09T16:46:21;22.80;118.99
66726;HTU21D;53638;51.062;5.804;2022-09-09T16:48:50;22.36;118.99
66726;HTU21D;53638;51.062;5.804;2022-09-09T16:51:19;22.02;118.99
66726;HTU21D;53638;51.062;5.804;2022-09-09T16:53:46;21.73;118.99
66726;HTU21D;53638;51.062;5.804;2022-09-09T16:56:19;21.48;118.99
66726;HTU21D;53638;51.062;5.804;2022-09-09T16:58:52;21.13;118.99
66726;HTU21D;53638;51.062;5.804;2022-09-09T17:01:26;20.85;118.99
66726;HTU21D;53638;51.062;5.804;2022-09-09T17:03:54;20.57;118.99
66726;HTU21D;53638;51.062;5.804;2022-09-09T17:06:21;20.32;118.99
66726;HTU21D;53638;51.062;5.804;2022-09-09T17:08:54;20.12;118.99
66726;HTU21D;53638;51.062;5.804;2022-09-09T17:11:20;19.99;118.99
66726;HTU21D;53638;51.062;5.804;2022-09-09T17:13:47;19.80;118.99
66726;HTU21D;53638;51.062;5.804;2022-09-09T17:16:15;19.57;118.99
66726;HTU21D;53638;51.062;5.804;2022-09-09T17:18:41;19.42;118.99
66726;HTU21D;53638;51.062;5.804;2022-09-09T17:21:11;19.32;118.99
66726;HTU21D;53638;51.062;5.804;2022-09-09T17:23:38;19.28;118.99
66726;HTU21D;53638;51.062;5.804;2022-09-09T17:26:07;19.20;118.99
66726;HTU21D;53638;51.062;5.804;2022-09-09T17:28:34;19.11;118.99
66726;HTU21D;53638;51.062;5.804;2022-09-09T17:31:01;19.07;118.99
66726;HTU21D;53638;51.062;5.804;2022-09-09T17:33:29;18.99;118.99
66726;HTU21D;53638;51.062;5.804;2022-09-09T17:35:58;18.94;118.99
66726;HTU21D;53638;51.062;5.804;2022-09-09T17:38:25;18.86;118.99
66726;HTU21D;53638;51.062;5.804;2022-09-09T17:41:04;18.81;118.99
66726;HTU21D;53638;51.062;5.804;2022-09-09T17:43:30;18.74;118.99
66726;HTU21D;53638;51.062;5.804;2022-09-09T17:46:05;18.70;118.99
66726;HTU21D;53638;51.062;5.804;2022-09-09T17:48:31;18.65;118.99
66726;HTU21D;53638;51.062;5.804;2022-09-09T17:50:58;18.61;118.99
66726;HTU21D;53638;51.062;5.804;2022-09-09T17:53:24;18.54;118.99
66726;HTU21D;53638;51.062;5.804;2022-09-09T17:55:51;18.51;118.99